• Join FlightAware (Why Join?)
  • Login
  • US Flag 
01:50PM EDT


 

Airport Tracker/Info


-or-


 

Live Flight TrackerFlight Track Log ✈ AIP5038 ✈ 09-Nov-2013 ✈ KMSO - KBIL

Flight Track Log - Related Links

Times and Time Zones

All times are in EST time to prevent confusion due to time zone crossing. See the AIP5038 flight status page for this flight to view local times or setup timezone preferences in your user account.

Time Position Orientation Groundspeed Altitude Reporting Facility
EST Latitude Longitude Course Direction KTS MPH feet Rate Location/Type
02:53AM 46.9181 -114.0953 108° East 124 143 3,800  Level Salt Lake Center
02:54AM 46.8967 -114.0992 187° South 135 155 6,400 2,100 Climbing Salt Lake Center
02:55AM 46.8908 -114.0397 98° East 149 171 8,100 1,800 Climbing Salt Lake Center
02:56AM 46.8803 -113.9747 103° East 162 186 10,100 1,740 Climbing Salt Lake Center
02:57AM 46.8141 -113.5061 101° East  Level Estimated
02:57AM 46.8656 -113.9092 108° East 169 194 11,700  Level Salt Lake Center
02:58AM 46.7968 -113.4089 108° East  Level Estimated
02:58AM 46.8492 -113.8375 108° East 183 211 13,100  Level Salt Lake Center
02:59AM 46.8333 -113.7575 106° East 203 234 14,400 1,200 Climbing Salt Lake Center
03:00AM 46.8217 -113.6794 102° East 198 228 15,600 1,080 Climbing Salt Lake Center
03:01AM 46.8097 -113.5881 101° East 211 243 16,600 600 Climbing Salt Lake Center
03:02AM 46.7889 -113.4839 106° East 231 266 17,000 180 Climbing Salt Lake Center
03:03AM 46.7703 -113.3839 105° East 252 290 17,000  Level Salt Lake Center
03:04AM 46.7519 -113.2878 106° East 263 303 17,000 -60 Level Salt Lake Center
03:05AM 46.7333 -113.1892 105° East 262 302 16,900  Descending Salt Lake Center
03:06AM 46.7153 -113.0878 105° East 259 298 17,000  Climbing Salt Lake Center
03:07AM 46.6975 -112.9883 105° East 255 293 17,000  Level Salt Lake Center
03:08AM 46.6800 -112.8819 103° East 260 299 17,100 -60 Climbing Salt Lake Center
03:09AM 46.6625 -112.7778 104° East 265 305 16,900 -60 Descending Salt Lake Center
03:10AM 46.6406 -112.6767 108° East 264 304 17,000  Climbing Salt Lake Center
03:11AM 46.6222 -112.5719 104° East 267 307 17,000 -60 Level Salt Lake Center
03:12AM 46.6075 -112.4681 102° East 264 304 16,900  Descending Salt Lake Center
03:13AM 46.5906 -112.3639 103° East 264 304 17,000  Climbing Salt Lake Center
03:15AM 46.5733 -112.2608 104° East 266 306 17,000  Level Salt Lake Center
03:16AM 46.5489 -112.1611 110° East 264 304 17,000  Level Salt Lake Center
03:17AM 46.5258 -112.0633 109° East 258 297 17,000  Level Salt Lake Center
03:18AM 46.5100 -111.9631 103° East 254 292 17,100  Climbing Salt Lake Center
03:19AM 46.4925 -111.8622 104° East 258 297 17,100  Level Salt Lake Center
03:20AM 46.4694 -111.7631 109° East 260 299 17,200  Climbing Salt Lake Center
03:21AM 46.4458 -111.6433 106° East 258 297 17,100 -60 Descending Salt Lake Center
03:22AM 46.4283 -111.5361 103° East 264 304 17,100  Level Salt Lake Center
03:23AM 46.4142 -111.4372 102° East 266 306 17,100  Level Salt Lake Center
03:24AM 46.3967 -111.3347 104° East 260 299 17,100 -60 Level Salt Lake Center
03:25AM 46.3786 -111.2322 104° East 260 299 17,000  Descending Salt Lake Center
03:26AM 46.3542 -111.1319 109° East 259 298 17,100  Climbing Salt Lake Center
03:27AM 46.3289 -111.0319 110° East 260 299 17,100 -60 Level Salt Lake Center
03:28AM 46.3067 -110.9428 110° East 263 303 17,000 -120 Descending Salt Lake Center
03:29AM 46.2861 -110.8453 107° East 260 299 16,900  Descending Salt Lake Center
03:30AM 46.2650 -110.7500 108° East 253 291 17,100 60 Climbing Salt Lake Center
03:31AM 46.2428 -110.6517 108° East 255 293 17,100  Level Salt Lake Center
03:32AM 46.2228 -110.5481 106° East 264 304 17,100 -60 Level Salt Lake Center
03:33AM 46.2000 -110.4456 108° East 268 308 17,000  Descending Salt Lake Center
03:34AM 46.1797 -110.3411 106° East 268 308 17,100  Climbing Salt Lake Center
03:35AM 46.1572 -110.2403 108° East 268 308 17,000  Descending Salt Lake Center
03:36AM 46.1342 -110.1369 108° East 270 311 17,100  Climbing Salt Lake Center
03:37AM 46.1147 -110.0342 105° East 267 307 17,100  Level Salt Lake Center
03:38AM 46.0958 -109.9317 105° East 266 306 17,100 -360 Level Salt Lake Center
03:39AM 46.0728 -109.8125 106° East 271 312 16,400 -480 Descending Salt Lake Center
03:40AM 46.0519 -109.7103 106° East 268 308 16,200 -480 Descending Salt Lake Center
03:41AM 46.0292 -109.5994 106° East 270 311 15,500 -720 Descending Salt Lake Center
03:42AM 46.0056 -109.4961 108° East 269 310 14,800 -720 Descending Salt Lake Center
03:43AM 45.9869 -109.3947 105° East 272 313 14,100 -900 Descending Salt Lake Center
03:44AM 45.9653 -109.2958 107° East 266 306 13,000 -1,260 Descending Salt Lake Center
03:45AM 45.9497 -109.1900 102° East 272 313 11,600 -1,320 Descending Salt Lake Center
03:46AM 45.9364 -109.0747 99° East 273 314 10,400 -1,200 Descending Salt Lake Center
03:47AM 45.9147 -108.9717 107° East 273 314 9,200 -960 Descending Salt Lake Center
03:48AM 45.8972 -108.8661 103° East 275 316 8,500 -900 Descending Salt Lake Center
03:49AM 45.8725 -108.7728 111° Southeast 254 292 7,400 -1,380 Descending Salt Lake Center
03:50AM 45.8494 -108.6878 111° Southeast 237 273 5,800 -1,320 Descending Salt Lake Center
03:51AM 45.8306 -108.6208 112° Southeast 196 226 4,800 -960 Descending Salt Lake Center
03:52AM 45.8150 -108.5631 111° Southeast 149 171 3,900 -900 Descending Salt Lake Center
03:54AM 45.8077 -108.5429 90° East  Level Estimated